Time;durP1;ratioP1;P1;durP2;ratioP2;P2;SDS_P1;SDS_P2;PMS_P1;PMS_P2;Temp;Humidity;BMP_temperature;BMP_pressure;BME280_temperature;BME280_humidity;BME280_pressure;Samples;Min_cycle;Max_cycle;Signal;HPM_P1;HPM_P2
2023/09/26 00:01:44;;;;;;;1.40;1.05;;;;;;;;;;5073604;28;20074;-73
2023/09/26 00:04:10;;;;;;;0.93;0.80;;;;;;;;;;5073606;28;20417;-73
2023/09/26 00:06:36;;;;;;;1.10;1.00;;;;;;;;;;5073514;28;20020;-73
2023/09/26 00:09:05;;;;;;;1.00;0.90;;;;;;;;;;5073610;28;20411;-73
2023/09/26 00:11:34;;;;;;;0.80;0.60;;;;;;;;;;5073378;28;20119;-73
2023/09/26 00:14:00;;;;;;;1.35;0.88;;;;;;;;;;5073491;28;20394;-73
2023/09/26 00:16:26;;;;;;;1.63;1.20;;;;;;;;;;5073788;28;20032;-74
2023/09/26 00:18:52;;;;;;;1.67;0.80;;;;;;;;;;5073282;28;20035;-73
2023/09/26 00:21:18;;;;;;;1.77;1.05;;;;;;;;;;5073314;28;20032;-74
2023/09/26 00:23:44;;;;;;;1.33;0.90;;;;;;;;;;5073178;28;20024;-73
2023/09/26 00:26:11;;;;;;;3.40;1.10;;;;;;;;;;5073124;28;20119;-73
2023/09/26 00:28:37;;;;;;;1.15;1.05;;;;;;;;;;5073461;28;20025;-73
2023/09/26 00:31:04;;;;;;;1.73;1.13;;;;;;;;;;5073046;28;20040;-73
2023/09/26 00:33:30;;;;;;;1.10;1.00;;;;;;;;;;5073028;28;20013;-74
2023/09/26 00:35:58;;;;;;;1.20;0.95;;;;;;;;;;5072965;28;20032;-74
2023/09/26 00:38:24;;;;;;;1.10;0.98;;;;;;;;;;5073021;28;20449;-73
2023/09/26 00:40:50;;;;;;;0.88;0.70;;;;;;;;;;5071801;28;20436;-74
2023/09/26 00:43:22;;;;;;;0.93;0.88;;;21.60;64.80;;;;;;5073273;28;20063;-73
2023/09/26 00:45:53;;;;;;;1.30;1.00;;;21.60;70.80;;;;;;5073268;28;20060;-73
2023/09/26 00:48:20;;;;;;;1.20;1.00;;;;;;;;;;5072790;28;20019;-73
2023/09/26 00:50:47;;;;;;;1.30;0.93;;;21.60;67.40;;;;;;5072619;28;20033;-73
2023/09/26 00:53:13;;;;;;;1.60;0.90;;;;;;;;;;5072731;28;20056;-73
2023/09/26 00:55:39;;;;;;;1.30;0.95;;;;;;;;;;5072658;28;20146;-73
2023/09/26 00:58:06;;;;;;;1.38;0.98;;;21.60;67.60;;;;;;5072793;28;20108;-73
2023/09/26 01:00:33;;;;;;;0.70;0.65;;;;;;;;;;5072515;28;20024;-73
2023/09/26 01:03:00;;;;;;;1.15;0.93;;;;;;;;;;5072076;28;20090;-74
2023/09/26 01:05:26;;;;;;;1.20;0.85;;;;;;;;;;5072348;28;20559;-73
2023/09/26 01:07:53;;;;;;;1.15;1.05;;;;;;;;;;5072182;28;20025;-73
2023/09/26 01:10:19;;;;;;;1.08;0.98;;;;;;;;;;5072582;28;20037;-74
2023/09/26 01:12:46;;;;;;;1.27;0.95;;;;;;;;;;5071971;28;20486;-74
2023/09/26 01:15:12;;;;;;;1.52;1.10;;;;;;;;;;5072952;28;20029;-74
2023/09/26 01:17:39;;;;;;;1.67;0.80;;;;;;;;;;5072363;28;20320;-73
2023/09/26 01:20:15;;;;;;;1.30;1.02;;;;;;;;;;5072348;28;20033;-73
2023/09/26 01:22:47;;;;;;;0.98;0.88;;;21.50;70.50;;;;;;5072264;28;20031;-74
2023/09/26 01:25:16;;;;;;;1.20;0.82;;;21.50;64.80;;;;;;5072399;28;20150;-73
2023/09/26 01:27:43;;;;;;;0.63;0.60;;;;;;;;;;5072305;28;20108;-74
2023/09/26 01:30:10;;;;;;;1.10;0.90;;;;;;;;;;5072081;28;20033;-74
2023/09/26 01:32:36;;;;;;;1.27;0.82;;;;;;;;;;5071782;28;20044;-73
2023/09/26 01:35:04;;;;;;;1.33;0.95;;;;;;;;;;5072111;28;20386;-74
2023/09/26 01:37:30;;;;;;;1.40;1.20;;;;;;;;;;5072130;28;20032;-74
2023/09/26 01:39:56;;;;;;;1.77;0.90;;;;;;;;;;5071593;28;20035;-74
2023/09/26 01:42:23;;;;;;;1.38;0.95;;;;;;;;;;5072039;28;20487;-74
2023/09/26 01:44:49;;;;;;;0.93;0.77;;;;;;;;;;5072038;28;20395;-74
2023/09/26 01:47:30;;;;;;;0.77;0.77;;;21.40;70.50;;;;;;5071834;28;20382;-74
2023/09/26 01:49:57;;;;;;;1.23;1.00;;;;;;;;;;5071866;28;20047;-74
2023/09/26 01:52:24;;;;;;;1.10;1.00;;;;;;;;;;5071138;28;20494;-74
2023/09/26 01:54:50;;;;;;;1.35;1.10;;;;;;;;;;5071751;28;20393;-74
2023/09/26 01:57:17;;;;;;;1.80;0.70;;;;;;;;;;5071680;28;20398;-74
2023/09/26 01:59:43;;;;;;;1.05;0.90;;;;;;;;;;5071824;28;20024;-74
2023/09/26 02:02:10;;;;;;;1.25;0.98;;;;;;;;;;5071836;28;20060;-73
2023/09/26 02:04:36;;;;;;;1.33;0.85;;;;;;;;;;5071528;28;20025;-74
2023/09/26 02:07:02;;;;;;;1.05;0.90;;;;;;;;;;5071269;28;20036;-73
2023/09/26 02:09:29;;;;;;;1.52;1.10;;;;;;;;;;5071677;28;20032;-74
2023/09/26 02:11:55;;;;;;;1.08;0.70;;;;;;;;;;5071245;28;20035;-74
2023/09/26 02:14:22;;;;;;;1.63;1.00;;;;;;;;;;5071322;28;20020;-74
2023/09/26 02:16:48;;;;;;;0.95;0.82;;;;;;;;;;5071677;28;20024;-74
2023/09/26 02:19:14;;;;;;;2.70;1.15;;;;;;;;;;5071466;28;20147;-73
2023/09/26 02:21:41;;;;;;;1.05;0.73;;;;;;;;;;5071312;28;20427;-73
2023/09/26 02:24:07;;;;;;;1.35;1.08;;;;;;;;;;5071170;28;20024;-74
2023/09/26 02:26:34;;;;;;;1.08;0.90;;;;;;;;;;5071478;28;20158;-74
2023/09/26 02:29:00;;;;;;;1.15;0.90;;;;;;;;;;5071623;28;20542;-74
2023/09/26 02:31:27;;;;;;;2.45;0.90;;;;;;;;;;5071253;28;20071;-74
2023/09/26 02:33:53;;;;;;;1.42;1.20;;;;;;;;;;5071221;28;20031;-74
2023/09/26 02:36:20;;;;;;;1.08;0.88;;;;;;;;;;5071005;28;20111;-74
2023/09/26 02:38:46;;;;;;;1.05;0.93;;;;;;;;;;5071351;28;20030;-74
2023/09/26 02:41:13;;;;;;;1.52;1.10;;;;;;;;;;5071362;28;20122;-74
2023/09/26 02:43:40;;;;;;;1.35;0.90;;;;;;;;;;5071338;28;20100;-72
2023/09/26 02:46:07;;;;;;;1.05;0.82;;;;;;;;;;5071253;28;20048;-72
2023/09/26 02:48:33;;;;;;;1.08;0.98;;;;;;;;;;5070977;28;20017;-72
2023/09/26 02:51:05;;;;;;;1.00;0.90;;;21.10;64.90;;;;;;5070874;28;20041;-72
2023/09/26 02:53:32;;;;;;;0.93;0.85;;;;;;;;;;5071194;28;20025;-72
2023/09/26 02:55:58;;;;;;;1.48;0.90;;;;;;;;;;5070940;28;20031;-73
2023/09/26 02:58:25;;;;;;;1.17;1.05;;;;;;;;;;5071617;28;20028;-72
2023/09/26 03:00:51;;;;;;;1.10;0.90;;;;;;;;;;5070845;28;20024;-72
2023/09/26 03:03:18;;;;;;;2.00;0.95;;;;;;;;;;5070645;28;20052;-72
2023/09/26 03:05:53;;;;;;;1.17;0.90;;;21.20;65.20;;;;;;5056788;28;20028;-72
2023/09/26 03:08:19;;;;;;;1.02;0.90;;;;;;;;;;5074595;28;20024;-73
2023/09/26 03:10:45;;;;;;;0.73;0.73;;;;;;;;;;5074983;28;20055;-73
2023/09/26 03:13:11;;;;;;;1.00;0.80;;;;;;;;;;5074491;28;20032;-72
2023/09/26 03:15:37;;;;;;;0.85;0.70;;;;;;;;;;5074436;28;20039;-72
2023/09/26 03:18:03;;;;;;;1.08;0.95;;;;;;;;;;5074435;28;20028;-72
2023/09/26 03:20:29;;;;;;;1.95;1.00;;;;;;;;;;5074326;28;20099;-72
2023/09/26 03:22:55;;;;;;;0.88;0.70;;;;;;;;;;5074269;28;20099;-72
2023/09/26 03:25:21;;;;;;;1.40;0.98;;;;;;;;;;5074619;28;20037;-72
2023/09/26 03:27:47;;;;;;;1.48;1.00;;;;;;;;;;5074170;28;20028;-72
2023/09/26 03:30:16;;;;;;;0.80;0.80;;;21.10;65.10;;;;;;5074293;28;20388;-72
2023/09/26 03:32:42;;;;;;;1.67;1.00;;;;;;;;;;5074189;28;20129;-72
2023/09/26 03:35:09;;;;;;;1.85;1.15;;;;;;;;;;5073948;28;20116;-72
2023/09/26 03:37:35;;;;;;;2.15;1.40;;;;;;;;;;5073870;28;20437;-72
2023/09/26 03:40:01;;;;;;;1.48;1.08;;;;;;;;;;5073946;28;20028;-72
2023/09/26 03:42:27;;;;;;;1.05;0.95;;;;;;;;;;5073765;28;20043;-72
2023/09/26 03:44:53;;;;;;;0.93;0.80;;;;;;;;;;5074132;28;20021;-72
2023/09/26 03:47:19;;;;;;;1.42;1.20;;;;;;;;;;5073811;28;20028;-72
2023/09/26 03:49:45;;;;;;;1.48;1.35;;;;;;;;;;5073906;28;20032;-72
2023/09/26 03:52:12;;;;;;;2.10;1.50;;;;;;;;;;5073382;28;20474;-72
2023/09/26 03:54:38;;;;;;;1.70;1.60;;;;;;;;;;5074170;28;20198;-72
2023/09/26 03:57:05;;;;;;;2.58;2.38;;;;;;;;;;5073798;28;20360;-72
2023/09/26 03:59:32;;;;;;;3.17;2.97;;;;;;;;;;5073500;28;20021;-72
2023/09/26 04:01:59;;;;;;;4.22;3.92;;;;;;;;;;5073312;28;20029;-72
2023/09/26 04:04:25;;;;;;;5.40;5.00;;;;;;;;;;5055620;28;20040;-72
2023/09/26 04:06:51;;;;;;;6.82;6.32;;;;;;;;;;5073543;28;20467;-72
2023/09/26 04:09:17;;;;;;;9.32;8.65;;;;;;;;;;5073530;28;20039;-72
2023/09/26 04:11:43;;;;;;;10.00;9.20;;;;;;;;;;5073487;28;20045;-72
2023/09/26 04:14:09;;;;;;;12.20;11.30;;;;;;;;;;5073320;28;20478;-72
2023/09/26 04:16:35;;;;;;;13.10;12.10;;;;;;;;;;5073016;28;20031;-72
2023/09/26 04:19:01;;;;;;;14.00;13.00;;;;;;;;;;5073447;28;20440;-72
2023/09/26 04:21:27;;;;;;;16.95;15.65;;;;;;;;;;5073266;28;20037;-72
2023/09/26 04:23:53;;;;;;;19.55;18.05;;;;;;;;;;5073746;28;20028;-72
2023/09/26 04:26:20;;;;;;;20.88;19.35;;;;;;;;;;5073194;28;20056;-72
2023/09/26 04:28:46;;;;;;;22.40;20.70;;;;;;;;;;5054983;28;20032;-72
2023/09/26 04:31:13;;;;;;;22.30;20.60;;;21.00;71.30;;;;;;5072961;28;20089;-72
2023/09/26 04:33:39;;;;;;;26.50;24.40;;;;;;;;;;5073010;28;20017;-73
2023/09/26 04:36:05;;;;;;;23.92;22.13;;;;;;;;;;5073005;28;20477;-72
2023/09/26 04:38:32;;;;;;;25.50;23.50;;;;;;;;;;5072872;28;20037;-73
2023/09/26 04:41:03;;;;;;;25.55;23.55;;;20.90;72.20;;;;;;5072790;28;20386;-73
2023/09/26 04:43:30;;;;;;;26.40;24.40;;;20.90;72.10;;;;;;5054806;28;20367;-72
2023/09/26 04:45:56;;;;;;;27.33;25.05;;;;;;;;;;5072728;28;20028;-73
2023/09/26 04:48:22;;;;;;;26.20;24.10;;;;;;;;;;5072750;28;20035;-73
2023/09/26 04:50:51;;;;;;;27.75;25.55;;;20.90;66.50;;;;;;5072904;28;20071;-73
2023/09/26 04:53:17;;;;;;;28.58;26.38;;;;;;;;;;5072600;28;20024;-72
2023/09/26 04:55:43;;;;;;;26.65;24.50;;;;;;;;;;5072396;28;20509;-72
2023/09/26 04:58:09;;;;;;;27.45;25.25;;;;;;;;;;5072413;28;20032;-71
2023/09/26 05:00:39;;;;;;;26.67;24.60;;;;;;;;;;5072257;28;20031;-73
2023/09/26 05:03:05;;;;;;;27.17;25.07;;;;;;;;;;5072225;28;20132;-72
2023/09/26 05:05:31;;;;;;;26.92;24.90;;;;;;;;;;5072336;28;20075;-73
2023/09/26 05:07:57;;;;;;;27.67;25.58;;;;;;;;;;5072412;28;20032;-73
2023/09/26 05:10:23;;;;;;;26.05;23.95;;;;;;;;;;5072163;28;20028;-73
2023/09/26 05:12:49;;;;;;;26.67;24.58;;;;;;;;;;5072313;28;20468;-72
2023/09/26 05:15:16;;;;;;;24.60;22.70;;;20.80;72.00;;;;;;5072205;28;20441;-73
2023/09/26 05:17:42;;;;;;;24.90;22.88;;;;;;;;;;5072111;28;20025;-72
2023/09/26 05:20:11;;;;;;;24.60;22.50;;;20.90;72.00;;;;;;5072167;28;20534;-72
2023/09/26 05:22:44;;;;;;;26.92;24.83;;;20.80;72.50;;;;;;5072338;28;20039;-73
2023/09/26 05:25:10;;;;;;;24.92;22.92;;;;;;;;;;5071937;28;20040;-73
2023/09/26 05:27:38;;;;;;;24.33;22.42;;;20.80;72.00;;;;;;5071367;28;20162;-73
2023/09/26 05:30:06;;;;;;;23.67;21.77;;;20.80;72.30;;;;;;5071780;28;20021;-72
2023/09/26 05:32:32;;;;;;;24.05;22.15;;;;;;;;;;5072063;28;20031;-73
2023/09/26 05:34:58;;;;;;;22.90;20.90;;;;;;;;;;5071750;28;20021;-73
2023/09/26 05:37:25;;;;;;;22.42;20.73;;;;;;;;;;5071801;28;20052;-73
2023/09/26 05:39:51;;;;;;;21.52;19.83;;;;;;;;;;5071915;28;20031;-73
2023/09/26 05:42:17;;;;;;;18.70;17.27;;;;;;;;;;5071801;28;20036;-73
2023/09/26 05:44:43;;;;;;;20.10;18.52;;;;;;;;;;5053860;28;20020;-73
2023/09/26 05:47:09;;;;;;;18.50;17.10;;;;;;;;;;5071987;28;20035;-72
2023/09/26 05:49:36;;;;;;;17.90;16.50;;;;;;;;;;5071932;28;20020;-72
2023/09/26 05:52:02;;;;;;;18.08;16.58;;;;;;;;;;5071731;28;20119;-73
2023/09/26 05:54:31;;;;;;;18.15;16.75;;;20.70;66.70;;;;;;5071672;28;20024;-73
2023/09/26 05:56:57;;;;;;;17.05;15.63;;;;;;;;;;5072051;28;20461;-72
2023/09/26 05:59:23;;;;;;;17.33;15.93;;;;;;;;;;5071792;28;20016;-72
2023/09/26 06:01:49;;;;;;;17.10;15.70;;;;;;;;;;5071455;28;20025;-73
2023/09/26 06:04:16;;;;;;;16.92;15.43;;;;;;;;;;5071497;28;20461;-72
2023/09/26 06:06:42;;;;;;;15.65;14.40;;;;;;;;;;5071528;28;20479;-72
2023/09/26 06:09:08;;;;;;;15.13;13.93;;;;;;;;;;5071530;28;20039;-72
2023/09/26 06:11:35;;;;;;;15.63;14.32;;;;;;;;;;5071361;28;20043;-74
2023/09/26 06:14:01;;;;;;;16.52;15.23;;;;;;;;;;5071603;28;20028;-75
2023/09/26 06:16:28;;;;;;;14.80;13.55;;;;;;;;;;5071570;28;20067;-75
2023/09/26 06:18:55;;;;;;;14.02;12.82;;;20.70;72.10;;;;;;5071645;28;20035;-76
2023/09/26 06:21:21;;;;;;;13.55;12.48;;;;;;;;;;5071273;28;20035;-75
2023/09/26 06:23:48;;;;;;;14.23;13.07;;;;;;;;;;5071549;28;20020;-76
2023/09/26 06:26:15;;;;;;;13.30;12.30;;;;;;;;;;5071706;28;20082;-75
2023/09/26 06:28:41;;;;;;;13.23;12.13;;;;;;;;;;5071592;28;20467;-75
2023/09/26 06:31:09;;;;;;;13.07;12.07;;;20.60;71.90;;;;;;5071057;28;20482;-76
2023/09/26 06:33:35;;;;;;;12.55;11.57;;;;;;;;;;5071260;28;20025;-74
2023/09/26 06:36:10;;;;;;;11.75;10.85;;;;;;;;;;5071203;28;20025;-73
2023/09/26 06:38:36;;;;;;;11.30;10.40;;;;;;;;;;5072103;28;20029;-75
2023/09/26 06:41:05;;;;;;;11.32;10.43;;;20.60;69.20;;;;;;5075460;28;20028;-74
2023/09/26 06:43:32;;;;;;;11.07;10.18;;;;;;;;;;5075128;28;20021;-73
2023/09/26 06:45:58;;;;;;;10.45;9.57;;;;;;;;;;5075436;28;20056;-73
2023/09/26 06:48:25;;;;;;;10.23;9.32;;;;;;;;;;5075007;28;20025;-73
2023/09/26 06:50:52;;;;;;;9.48;8.77;;;20.60;72.00;;;;;;5075006;28;20111;-77
2023/09/26 06:53:18;;;;;;;9.80;8.95;;;;;;;;;;5075455;28;20508;-73
2023/09/26 06:55:44;;;;;;;9.30;8.50;;;;;;;;;;5075136;28;20044;-75
2023/09/26 06:58:11;;;;;;;8.73;8.02;;;;;;;;;;5074948;28;20027;-73
2023/09/26 07:00:37;;;;;;;8.75;8.02;;;;;;;;;;5075218;28;20024;-73
2023/09/26 07:03:04;;;;;;;7.85;7.25;;;;;;;;;;5074558;28;20071;-73
2023/09/26 07:05:30;;;;;;;7.80;7.10;;;;;;;;;;5075167;28;20044;-73
2023/09/26 07:07:57;;;;;;;7.13;6.53;;;;;;;;;;5075073;28;20548;-74
2023/09/26 07:10:24;;;;;;;7.40;6.80;;;;;;;;;;5074846;28;20041;-74
2023/09/26 07:12:53;;;;;;;6.47;5.97;;;;;;;;;;5074584;28;20040;-72
2023/09/26 07:15:37;;;;;;;5.80;5.38;;;;;;;;;;5073203;28;20108;-73
2023/09/26 07:18:06;;;;;;;5.95;5.35;;;20.60;70.80;;;;;;5074588;28;20483;-76
2023/09/26 07:20:33;;;;;;;6.00;5.50;;;20.60;72.30;;;;;;5074837;28;20025;-73
2023/09/26 07:23:03;;;;;;;5.53;4.75;;;;;;;;;;5075313;28;20394;-73
2023/09/26 07:25:29;;;;;;;;;;;20.60;72.90;;;;;;5075051;28;20025;-73
2023/09/26 07:27:56;;;;;;;4.35;3.95;;;;;;;;;;5074696;28;19944;-74
2023/09/26 07:30:22;;;;;;;4.40;4.00;;;;;;;;;;5074160;28;20471;-74
2023/09/26 07:32:49;;;;;;;3.33;3.03;;;;;;;;;;5074537;28;20421;-74
2023/09/26 07:35:15;;;;;;;4.38;3.35;;;;;;;;;;5074304;28;20085;-74
2023/09/26 07:37:41;;;;;;;3.75;3.45;;;;;;;;;;5074235;28;20524;-74
2023/09/26 07:40:09;;;;;;;5.45;3.00;;;;;;;;;;5074170;28;20039;-74
2023/09/26 07:42:36;;;;;;;3.05;2.85;;;;;;;;;;5074375;28;20036;-73
2023/09/26 07:45:02;;;;;;;3.28;2.97;;;;;;;;;;5074100;28;20036;-74
2023/09/26 07:47:29;;;;;;;3.00;2.80;;;;;;;;;;5074265;28;20032;-74
2023/09/26 07:49:55;;;;;;;2.55;2.30;;;;;;;;;;5073774;28;20028;-72
2023/09/26 07:52:26;;;;;;;2.08;1.98;;;;;;;;;;5074508;28;20041;-73
2023/09/26 07:54:52;;;;;;;3.20;2.55;;;;;;;;;;5073978;28;20020;-73
2023/09/26 07:57:18;;;;;;;2.40;2.20;;;;;;;;;;5073906;28;20037;-73
2023/09/26 07:59:44;;;;;;;3.65;2.28;;;;;;;;;;5073924;28;20177;-74
2023/09/26 08:02:10;;;;;;;3.78;2.10;;;;;;;;;;5073627;28;20486;-71
2023/09/26 08:04:36;;;;;;;2.35;2.13;;;;;;;;;;5073866;28;20074;-73
2023/09/26 08:07:02;;;;;;;3.83;2.33;;;;;;;;;;5073804;28;20063;-73
2023/09/26 08:09:28;;;;;;;2.35;1.95;;;;;;;;;;5073611;28;20060;-74
2023/09/26 08:11:54;;;;;;;2.13;1.67;;;;;;;;;;5073668;28;20112;-73
2023/09/26 08:14:19;;;;;;;2.80;2.00;;;;;;;;;;5073671;28;20543;-73
2023/09/26 08:16:47;;;;;;;1.70;1.60;;;;;;;;;;5073578;28;20029;-74
2023/09/26 08:19:13;;;;;;;2.80;1.77;;;;;;;;;;5074107;28;20025;-74
2023/09/26 08:21:40;;;;;;;2.65;1.90;;;;;;;;;;5073536;28;20043;-73
2023/09/26 08:24:06;;;;;;;2.03;1.45;;;20.60;69.90;;;;;;5073544;28;20024;-74
2023/09/26 08:26:32;;;;;;;3.15;1.70;;;;;;;;;;5073616;28;20425;-75
2023/09/26 08:28:58;;;;;;;2.92;1.70;;;;;;;;;;5074069;28;20047;-74
2023/09/26 08:31:25;;;;;;;1.83;1.50;;;;;;;;;;5074361;28;20028;-75
2023/09/26 08:33:51;;;;;;;1.73;1.48;;;;;;;;;;5073502;28;20028;-75
2023/09/26 08:36:18;;;;;;;2.92;1.48;;;20.70;72.90;;;;;;5073272;28;20032;-74
2023/09/26 08:38:45;;;;;;;2.15;1.48;;;20.70;69.80;;;;;;5073162;28;20020;-73
2023/09/26 08:41:12;;;;;;;2.30;1.33;;;;;;;;;;5073094;28;20029;-75
2023/09/26 08:43:38;;;;;;;1.98;1.48;;;;;;;;;;5073246;28;20459;-74
2023/09/26 08:46:05;;;;;;;1.92;1.60;;;20.70;73.20;;;;;;5072988;28;20035;-73
2023/09/26 08:48:32;;;;;;;1.67;1.27;;;;;;;;;;5073355;28;20037;-75
2023/09/26 08:50:58;;;;;;;2.08;1.30;;;;;;;;;;5072765;28;20024;-75
2023/09/26 08:53:24;;;;;;;1.42;1.27;;;;;;;;;;5072870;28;20398;-74
2023/09/26 08:55:50;;;;;;;3.45;1.58;;;;;;;;;;5072677;28;20020;-74
2023/09/26 08:58:16;;;;;;;2.40;1.17;;;;;;;;;;5072795;28;20036;-74
2023/09/26 09:00:43;;;;;;;1.63;1.20;;;20.80;72.70;;;;;;5072390;28;20371;-74
2023/09/26 09:03:10;;;;;;;1.20;1.10;;;;;;;;;;5071790;28;20053;-74
2023/09/26 09:05:36;;;;;;;1.77;1.13;;;;;;;;;;5072558;28;20100;-74
2023/09/26 09:08:02;;;;;;;1.83;1.23;;;;;;;;;;5072511;28;20060;-71
2023/09/26 09:10:28;;;;;;;1.70;1.30;;;;;;;;;;5072459;28;20035;-73
2023/09/26 09:13:03;;;;;;;2.05;1.17;;;20.90;67.20;;;;;;5072196;28;20037;-72
2023/09/26 09:15:30;;;;;;;2.40;1.48;;;;;;;;;;5072878;28;20580;-71
2023/09/26 09:17:57;;;;;;;1.63;1.35;;;;;;;;;;5072339;28;20101;-73
2023/09/26 09:20:31;;;;;;;1.92;1.63;;;20.90;67.50;;;;;;5072645;28;20446;-73
2023/09/26 09:23:04;;;;;;;1.80;1.35;;;21.00;67.60;;;;;;5072230;28;20024;-75
2023/09/26 09:25:35;;;;;;;2.40;1.02;;;21.00;73.20;;;;;;5072316;28;20052;-75
2023/09/26 09:28:02;;;;;;;1.95;1.40;;;21.00;72.50;;;;;;5072201;28;20382;-76
2023/09/26 09:30:28;;;;;;;1.88;1.30;;;;;;;;;;5072499;28;20024;-75
2023/09/26 09:32:56;;;;;;;1.23;1.05;;;21.00;73.40;;;;;;5071804;28;20032;-76
2023/09/26 09:35:22;;;;;;;1.42;1.10;;;21.00;71.30;;;;;;5071966;28;20103;-76
2023/09/26 09:37:50;;;;;;;2.65;1.10;;;;;;;;;;5071944;28;20033;-74
2023/09/26 09:40:20;;;;;;;2.90;1.05;;;21.10;73.40;;;;;;5071894;28;20462;-74
2023/09/26 09:42:50;;;;;;;2.55;1.08;;;21.10;67.90;;;;;;5072229;28;20035;-75
2023/09/26 09:45:17;;;;;;;1.92;1.40;;;21.10;73.40;;;;;;5072472;28;20033;-74
2023/09/26 09:47:47;;;;;;;2.40;1.23;;;21.20;72.00;;;;;;5071768;28;20033;-74
2023/09/26 09:50:14;;;;;;;2.05;1.20;;;;;;;;;;5071950;28;20154;-73
2023/09/26 09:52:43;;;;;;;1.52;1.30;;;21.20;73.40;;;;;;5071839;28;20032;-73
2023/09/26 09:55:18;;;;;;;1.77;1.30;;;21.20;73.50;;;;;;5072035;28;20415;-73
2023/09/26 09:57:48;;;;;;;1.33;1.10;;;21.40;73.70;;;;;;5071721;28;20024;-73
2023/09/26 10:00:14;;;;;;;3.55;1.30;;;;;;;;;;5071655;28;20463;-74
2023/09/26 10:02:42;;;;;;;1.20;1.08;;;21.20;73.40;;;;;;5071428;28;20048;-73
2023/09/26 10:05:12;;;;;;;1.92;1.17;;;;;;;;;;5071482;28;20497;-73
2023/09/26 10:07:40;;;;;;;1.67;1.00;;;21.30;73.40;;;;;;5071896;28;20039;-73
2023/09/26 10:10:09;;;;;;;1.98;1.30;;;21.30;73.20;;;;;;5071777;28;20414;-73
2023/09/26 10:12:39;;;;;;;2.22;1.20;;;21.30;67.70;;;;;;5071154;28;20599;-76
2023/09/26 10:15:13;;;;;;;1.85;1.30;;;21.40;67.70;;;;;;5071731;28;20020;-72
2023/09/26 10:17:56;;;;;;;1.38;1.20;;;;;;;;;;5069882;28;20502;-75
2023/09/26 10:20:28;;;;;;;1.75;1.30;;;21.50;73.20;;;;;;5071741;28;20032;-73
2023/09/26 10:23:09;;;;;;;1.60;1.30;;;21.50;73.30;;;;;;5071681;28;20390;-73
2023/09/26 10:25:36;;;;;;;2.58;1.30;;;21.60;73.20;;;;;;5071333;28;20017;-73
2023/09/26 10:28:04;;;;;;;2.00;1.40;;;21.50;73.30;;;;;;5071521;28;20027;-73
2023/09/26 10:30:47;;;;;;;2.58;1.50;;;21.60;72.90;;;;;;5071618;28;20021;-73
2023/09/26 10:33:13;;;;;;;2.63;1.52;;;;;;;;;;5071429;28;20128;-72
2023/09/26 10:35:43;;;;;;;2.30;1.50;;;22.00;67.00;;;;;;5071324;28;20048;-73
2023/09/26 10:38:18;;;;;;;2.28;1.85;;;21.90;67.30;;;;;;5071186;28;20035;-73
2023/09/26 10:40:48;;;;;;;2.53;1.52;;;22.10;66.80;;;;;;5071278;28;20033;-74
2023/09/26 10:43:17;;;;;;;2.57;1.87;;;22.10;66.50;;;;;;5071432;28;20036;-74
2023/09/26 10:45:44;;;;;;;2.38;1.40;;;22.20;70.00;;;;;;5071255;28;20483;-73
2023/09/26 10:48:17;;;;;;;3.20;1.77;;;22.30;72.30;;;;;;5071009;28;20100;-73
2023/09/26 10:50:44;;;;;;;2.90;1.70;;;;;;;;;;5071329;28;20526;-75
2023/09/26 10:53:10;;;;;;;3.20;1.50;;;;;;;;;;5071289;28;20402;-73
2023/09/26 10:55:37;;;;;;;1.58;1.42;;;22.50;71.70;;;;;;5071162;28;20024;-75
2023/09/26 10:58:04;;;;;;;3.10;1.70;;;;;;;;;;5071084;28;20021;-73
2023/09/26 11:00:30;;;;;;;3.15;1.92;;;;;;;;;;5070966;28;20024;-73
2023/09/26 11:02:57;;;;;;;2.40;1.48;;;;;;;;;;5070737;28;20044;-74
2023/09/26 11:05:26;;;;;;;2.45;1.52;;;;;;;;;;5070803;28;20025;-73
2023/09/26 11:07:54;;;;;;;2.00;1.55;;;;;;;;;;5071022;28;20437;-72
2023/09/26 11:10:20;;;;;;;2.83;1.55;;;;;;;;;;5071084;28;20024;-72
2023/09/26 11:12:46;;;;;;;3.03;2.00;;;;;;;;;;5070922;28;20032;-72
2023/09/26 11:15:12;;;;;;;1.88;1.52;;;;;;;;;;5070826;28;20363;-72
2023/09/26 11:17:39;;;;;;;2.53;1.58;;;;;;;;;;5070913;28;20032;-72
2023/09/26 11:20:05;;;;;;;3.88;1.75;;;;;;;;;;5052960;28;20601;-72
2023/09/26 11:22:46;;;;;;;4.82;1.90;;;23.10;70.90;;;;;;5070932;28;20390;-73
2023/09/26 11:25:12;;;;;;;2.50;1.55;;;;;;;;;;5072225;28;20020;-73
2023/09/26 11:27:43;;;;;;;2.50;1.95;;;23.30;64.80;;;;;;5074458;28;20032;-73
2023/09/26 11:30:14;;;;;;;3.08;1.70;;;23.40;70.40;;;;;;5074503;28;20036;-72
2023/09/26 11:32:49;;;;;;;2.65;1.45;;;23.50;64.40;;;;;;5074448;28;20045;-73
2023/09/26 11:35:16;;;;;;;2.53;1.65;;;;;;;;;;5074297;28;20020;-73
2023/09/26 11:37:42;;;;;;;3.60;1.73;;;;;;;;;;5074304;28;20471;-73
2023/09/26 11:40:11;;;;;;;2.17;1.38;;;23.70;63.90;;;;;;5074543;28;20371;-72
2023/09/26 11:42:41;;;;;;;2.63;1.40;;;23.70;63.80;;;;;;5074147;28;20035;-72
2023/09/26 11:45:08;;;;;;;3.63;1.50;;;;;;;;;;5074504;28;20124;-73
2023/09/26 11:47:34;;;;;;;2.75;0.98;;;;;;;;;;5074345;28;20050;-77
2023/09/26 11:50:00;;;;;;;2.78;1.70;;;;;;;;;;5074076;28;20032;-77
2023/09/26 11:52:26;;;;;;;2.65;1.73;;;;;;;;;;5073989;28;20094;-76
2023/09/26 11:54:52;;;;;;;1.77;1.30;;;;;;;;;;5074120;28;20021;-77
2023/09/26 11:57:19;;;;;;;3.20;1.70;;;;;;;;;;5056197;28;20032;-76
2023/09/26 11:59:45;;;;;;;2.00;1.40;;;;;;;;;;5074217;28;20032;-77
2023/09/26 12:02:12;;;;;;;2.03;1.10;;;;;;;;;;5073952;28;20127;-76
2023/09/26 12:04:39;;;;;;;1.80;1.30;;;23.60;71.50;;;;;;5074487;28;20036;-73
2023/09/26 12:07:06;;;;;;;1.70;1.40;;;;;;;;;;5073784;28;20082;-72
2023/09/26 12:09:33;;;;;;;1.52;1.40;;;;;;;;;;5073997;28;20024;-73
2023/09/26 12:11:59;;;;;;;3.25;1.42;;;;;;;;;;5073990;28;20115;-72
2023/09/26 12:14:26;;;;;;;2.80;1.50;;;;;;;;;;5073951;28;20150;-72
2023/09/26 12:16:52;;;;;;;2.60;1.15;;;;;;;;;;5076434;28;20436;-76
2023/09/26 12:19:20;;;;;;;1.25;1.00;;;23.50;72.20;;;;;;5081278;28;20374;-76
2023/09/26 12:21:47;;;;;;;5.07;1.30;;;23.50;71.80;;;;;;5073657;28;20389;-72
2023/09/26 12:24:17;;;;;;;1.90;1.50;;;23.50;72.50;;;;;;5073691;28;20020;-73
2023/09/26 12:26:46;;;;;;;1.23;0.93;;;;;;;;;;5073740;28;20385;-74
2023/09/26 12:29:14;;;;;;;3.78;1.38;;;23.30;72.40;;;;;;5073671;28;20036;-73
2023/09/26 12:31:42;;;;;;;2.08;1.30;;;;;;;;;;5073982;28;20063;-73
2023/09/26 12:34:10;;;;;;;1.90;1.60;;;23.50;70.20;;;;;;5073639;28;20032;-73
2023/09/26 12:36:36;;;;;;;1.55;1.40;;;;;;;;;;5073023;28;20028;-73
2023/09/26 12:39:03;;;;;;;1.50;1.10;;;;;;;;;;5073198;28;20023;-75
2023/09/26 12:41:30;;;;;;;1.85;1.10;;;;;;;;;;5073052;28;20039;-73
2023/09/26 12:43:58;;;;;;;1.65;1.23;;;;;;;;;;5073697;28;20067;-74
2023/09/26 12:46:25;;;;;;;1.77;1.10;;;23.50;70.30;;;;;;5073021;28;20475;-73
2023/09/26 12:48:51;;;;;;;2.13;1.20;;;;;;;;;;5073060;28;20032;-73
2023/09/26 12:51:17;;;;;;;2.55;1.02;;;;;;;;;;5073104;28;20040;-73
2023/09/26 12:53:43;;;;;;;4.03;1.30;;;;;;;;;;5072912;28;20100;-73
2023/09/26 12:56:09;;;;;;;2.70;1.10;;;;;;;;;;5072931;28;20085;-73
2023/09/26 12:58:35;;;;;;;1.63;1.10;;;;;;;;;;5072817;28;20025;-73
2023/09/26 13:01:01;;;;;;;1.63;1.13;;;;;;;;;;5073238;28;20114;-73
2023/09/26 13:03:27;;;;;;;3.38;1.50;;;;;;;;;;5072612;28;20071;-72
2023/09/26 13:05:53;;;;;;;1.63;1.20;;;;;;;;;;5072957;28;20389;-73
2023/09/26 13:08:19;;;;;;;1.50;1.25;;;;;;;;;;5072675;28;20028;-73
2023/09/26 13:10:45;;;;;;;4.40;1.48;;;;;;;;;;5072602;28;20485;-73
2023/09/26 13:13:11;;;;;;;1.45;1.15;;;;;;;;;;5072478;28;20043;-74
2023/09/26 13:15:37;;;;;;;2.33;1.17;;;;;;;;;;5072552;28;20103;-73
2023/09/26 13:18:03;;;;;;;2.60;1.10;;;;;;;;;;5072507;28;20032;-73
2023/09/26 13:20:29;;;;;;;1.77;1.48;;;;;;;;;;5072520;28;20128;-73
2023/09/26 13:22:55;;;;;;;4.72;1.30;;;;;;;;;;5072451;28;20537;-74
2023/09/26 13:25:21;;;;;;;1.10;1.00;;;;;;;;;;5072741;28;20065;-74
2023/09/26 13:27:47;;;;;;;1.15;1.02;;;;;;;;;;5072271;28;20032;-75
2023/09/26 13:30:13;;;;;;;2.35;1.10;;;;;;;;;;5072391;28;20029;-76
2023/09/26 13:32:40;;;;;;;1.92;1.10;;;;;;;;;;5072427;28;20094;-73
2023/09/26 13:35:07;;;;;;;1.10;1.00;;;;;;;;;;5072182;28;20052;-73
2023/09/26 13:37:35;;;;;;;2.25;1.20;;;23.50;72.60;;;;;;5072243;28;20031;-73
2023/09/26 13:40:04;;;;;;;1.92;1.20;;;;;;;;;;5072436;28;20374;-74
2023/09/26 13:42:30;;;;;;;2.63;1.50;;;;;;;;;;5072084;28;20115;-73
2023/09/26 13:44:56;;;;;;;1.65;1.40;;;;;;;;;;5071881;28;20120;-74
2023/09/26 13:47:22;;;;;;;2.08;1.40;;;;;;;;;;5053587;28;20043;-74
2023/09/26 13:49:48;;;;;;;1.88;1.33;;;;;;;;;;5071926;28;20482;-74
2023/09/26 13:52:14;;;;;;;1.70;1.02;;;;;;;;;;5071921;28;20032;-73
2023/09/26 13:54:40;;;;;;;2.40;1.40;;;;;;;;;;5072281;28;20048;-73
2023/09/26 13:57:06;;;;;;;1.45;1.15;;;;;;;;;;5071829;28;20083;-73
2023/09/26 13:59:32;;;;;;;3.33;1.08;;;;;;;;;;5071904;28;20028;-73
2023/09/26 14:01:58;;;;;;;1.25;1.05;;;;;;;;;;5071449;28;20036;-74
2023/09/26 14:04:24;;;;;;;1.67;1.20;;;;;;;;;;5071815;28;20078;-74
2023/09/26 14:06:50;;;;;;;1.48;1.30;;;;;;;;;;5072295;28;20028;-73
2023/09/26 14:09:17;;;;;;;1.83;1.65;;;;;;;;;;5072037;28;20414;-74